Terminal Aerodrome Forecast
Issued by NWS

Home | Current Version | Previous Version | Text Only | Print | Product List | Glossary On
Versions: 1 2 3 4 5 6 7 8 9 10 11 12 13 14 15 16 17 18 19 20 21
000
FTUS41 KOKX 171700
TAFHPN
TAF
KHPN 171726Z 1718/1818 30015G23KT P6SM BKN035
     FM172200 29012G19KT P6SM BKN035
     FM180000 29011G19KT P6SM SCT035 BKN050
     FM180500 29015G23KT P6SM BKN050
     FM181000 28013G20KT P6SM SCT050
     FM181500 29018G25KT P6SM SCT035
      AMD NOT SKED=

USA.gov is the U.S. government's official web portal to all federal, state and local government web resources and services.